Airfield :







YOU CAN JOIN US ON...

 
LOGIN :

Register | Disclaimer

   EN    FR    IT 

 









Legend :    VFR   Marginal VFR   IFR   Intensive IFR   Very Intensive IFR
Visi :
Ceiling :
>= 8 km
>= 3000ft
5 to 8 km
1000 to 3000 ft
1500m to 5 km
500 to 1000 ft
800 to 1500m
200 to 500 ft
< 800m
< 200 ft
Symbols :   Thunderstorms  Fog  Heavy snow  Heavy precipitations  Wind > 20 kt






- Airport Elevation : 118 ft
- IATA code : YUL


CYUL - Montréal - Pierre-Elliott-Trudeau Int.

CURRENT METAR :
  • 220200Z 30002KT 15SM SKC M22/M25 A3067 RMK SLP392

EXPIRED METARs :
  • 220100Z 28002KT 15SM SKC M23/M27 A3069 RMK SLP398
  • 220000Z 24003KT 15SM SKC M20/M25 A3069 RMK SLP398

TAF TAF CYUL
Valid from the 22 at 03:00 until the 23 at 00:00 UTC


220240Z 2203/2224 VRB03KT P6SM SKC
FM221300 VRB03KT P6SM FEW008
FM221800 03007KT P6SM BKN200 RMK NXT FCST BY 220600Z
ATIS : ENG : +1 514-633-3037 FRA : +1 514-633-3034
CZUL FIR / North America



MET'MAP, your aeronautical weather chart ! - Copyright ORBIFLY December 2007 - Disclaimer

ORBIFLY MET'MAP TEAM :

Programming & Development : Alexandra Zaïnal
Concept & original design : Baudouin d'Aumeries
Assistance for programming : Marc-Olivier Méhu
Technical & hardware support : Manuel Goepfert

Contact : metmap@orbifly.com




SOURCES & CREDITS :

   NOAA